RYR265 LPPT-LPPR
Flight info
| Callsign | RYR265 |
|---|---|
| Flight time | N/A |
| Altitude | 22000 |
| Route | IXIDA DCT ABLEG |
| Aircraft | B738/M-SDE2E3FGHIRWXY/LB1 |
Departure
| Time | 2026-05-05 12:47 |
|---|---|
| Airport | Lisbon Humberto Delgado Airport (LPPT) |
Arrival
| Time | N/A |
|---|---|
| Airport | Francisco de Sá Carneiro Airport (LPPR) |
| Time | Latitude | Longitude | Altitude | Speed | Heading |
|---|---|---|---|---|---|
| 2026-05-05 12:21 | 38.76461 | -9.13735 | 355 ft | 0 kts | 167° |
| 2026-05-05 12:37 | 38.76472 | -9.13738 | 356 ft | 3 kts | 168° |
| 2026-05-05 12:38 | 38.76491 | -9.13743 | 356 ft | 2 kts | 168° |
| 2026-05-05 12:38 | 38.76510 | -9.13746 | 351 ft | 3 kts | 183° |
| 2026-05-05 12:38 | 38.76528 | -9.13741 | 354 ft | 3 kts | 214° |
| 2026-05-05 12:38 | 38.76541 | -9.13724 | 354 ft | 3 kts | 250° |
| 2026-05-05 12:39 | 38.76544 | -9.13711 | 351 ft | 1 kts | 258° |
| 2026-05-05 12:39 | 38.76544 | -9.13708 | 351 ft | 0 kts | 258° |
| 2026-05-05 12:42 | 38.76544 | -9.13709 | 351 ft | 0 kts | 258° |
| 2026-05-05 12:42 | 38.76541 | -9.13724 | 354 ft | 1 kts | 258° |
| 2026-05-05 12:42 | 38.76533 | -9.13775 | 352 ft | 7 kts | 257° |
| 2026-05-05 12:43 | 38.76530 | -9.13795 | 351 ft | 0 kts | 257° |
| 2026-05-05 12:43 | 38.76525 | -9.13825 | 347 ft | 8 kts | 258° |
| 2026-05-05 12:43 | 38.76521 | -9.13849 | 347 ft | 1 kts | 258° |
| 2026-05-05 12:43 | 38.76520 | -9.13854 | 347 ft | 0 kts | 258° |
| 2026-05-05 12:44 | 38.76518 | -9.13867 | 347 ft | 6 kts | 258° |
| 2026-05-05 12:44 | 38.76536 | -9.13930 | 352 ft | 14 kts | 328° |
| 2026-05-05 12:44 | 38.76562 | -9.13971 | 347 ft | 12 kts | 284° |
| 2026-05-05 12:44 | 38.76505 | -9.14097 | 349 ft | 13 kts | 239° |
| 2026-05-05 12:45 | 38.76500 | -9.14180 | 351 ft | 20 kts | 284° |
| 2026-05-05 12:45 | 38.76562 | -9.14379 | 330 ft | 25 kts | 294° |
| 2026-05-05 12:45 | 38.76599 | -9.14413 | 334 ft | 7 kts | 8° |
| 2026-05-05 12:45 | 38.76689 | -9.14365 | 335 ft | 17 kts | 23° |
| 2026-05-05 12:46 | 38.76734 | -9.14340 | 334 ft | 0 kts | 23° |
| 2026-05-05 12:46 | 38.76893 | -9.14255 | 343 ft | 62 kts | 22° |
| 2026-05-05 12:47 | 38.77534 | -9.13913 | 367 ft | 136 kts | 21° |
| 2026-05-05 12:47 | 38.78578 | -9.13327 | 638 ft | 178 kts | 21° |
| 2026-05-05 12:47 | 38.79682 | -9.12678 | 1767 ft | 169 kts | 21° |
| 2026-05-05 12:47 | 38.80663 | -9.11957 | 2887 ft | 163 kts | 29° |
| 2026-05-05 12:48 | 38.81586 | -9.11119 | 3837 ft | 164 kts | 33° |
| 2026-05-05 12:48 | 38.82509 | -9.10137 | 4364 ft | 186 kts | 39° |
| 2026-05-05 12:48 | 38.83478 | -9.08874 | 4674 ft | 211 kts | 45° |
| 2026-05-05 12:48 | 38.84491 | -9.07331 | 4809 ft | 244 kts | 48° |
| 2026-05-05 12:49 | 38.85628 | -9.05413 | 4474 ft | 297 kts | 52° |
| 2026-05-05 12:49 | 38.86898 | -9.03117 | 4650 ft | 325 kts | 52° |
| 2026-05-05 12:49 | 38.88112 | -9.00822 | 5978 ft | 291 kts | 54° |
| 2026-05-05 12:49 | 38.89132 | -8.98754 | 7154 ft | 262 kts | 55° |
| 2026-05-05 12:50 | 38.90102 | -8.96748 | 7302 ft | 273 kts | 54° |
| 2026-05-05 12:50 | 38.91198 | -8.94554 | 6609 ft | 312 kts | 54° |
| 2026-05-05 12:50 | 38.92486 | -8.92081 | 6282 ft | 350 kts | 53° |
| 2026-05-05 12:50 | 38.93807 | -8.89554 | 7738 ft | 321 kts | 54° |
| 2026-05-05 12:51 | 38.94885 | -8.87345 | 10157 ft | 267 kts | 54° |
| 2026-05-05 12:51 | 38.95786 | -8.85377 | 11607 ft | 250 kts | 54° |
| 2026-05-05 12:51 | 38.96716 | -8.83337 | 11553 ft | 287 kts | 54° |
| 2026-05-05 12:51 | 38.97823 | -8.80943 | 10449 ft | 331 kts | 55° |
| 2026-05-05 12:52 | 38.98522 | -8.79441 | 9662 ft | 351 kts | 56° |